Terminal Aerodrome Forecast
Issued by NWS

Home | Current Version | Previous Version | Text Only | Print | Product List | Glossary On
Versions: 1 2 3 4 5 6 7 8 9 10 11 12 13 14
000
FTUS45 KABQ 221700
TAFLVS
TAF
KLVS 221739Z 2218/2318 28020G32KT P6SM SCT040 SCT070
     FM222200 01015G22KT P6SM VCSH BKN040 OVC060
     FM230100 03013KT P6SM VCSH OVC020
      TEMPO 2301/2305 3SM -SN BR OVC015
     FM230500 04010KT 2SM -SN BR OVC008
     FM231600 01013KT P6SM SCT008 BKN035=

USA.gov is the U.S. government's official web portal to all federal, state and local government web resources and services.